Impacts TAF Board
For situational awareness. Not to be used for flight planning purposes.
IDs:

KOLS - Nogales Intl, AZ, US

Issued at 1720 UTC 08 Aug 2020
Updated at 2124 UTC 08 Aug 2020
Potential Impact None Slight Moderate High
Time2054Z 08/22Z 08/23Z 09/00Z 09/01Z 09/02Z 09/03Z 09/04Z 09/05Z 09/06Z 09/07Z 09/08Z 09/09Z 09/10Z>>
Type OBS PRVL PRVL PRVL PRVL PRVL PRVL PRVL PRVL PRVL PRVL PRVL PRVL PRVL
VIS 10 >6 >6 >6 >6 >6 >6 >6 >6 >6 >6 >6 >6 >6
CIG -- -- -- -- -- -- -- -- -- -- -- -- -- --
Cover CLR SCT SCT SCT SCT SCT SCT FEW FEW FEW FEW FEW FEW FEW
FltCat VFR VFR VFR VFR VFR VFR VFR VFR VFR VFR VFR VFR VFR VFR
WX -- -- -- -- -- -- -- -- -- -- -- -- -- --
WDir VRB 310 310 310 310 310 310 VRB VRB VRB VRB VRB VRB VRB
WSpd 5 7 7 7 7 7 7 4 4 4 4 4 4 4
WGst -- -- -- -- -- -- -- -- -- -- -- -- -- --
Raw TAF
KOLS 081720Z 0818/0918 VRB03KT P6SM FEW080
  FM082000 31007KT P6SM SCT090 SCT140
  FM090400 VRB04KT P6SM FEW100


Raw METAR
KOLS 082054Z AUTO VRB05KT 10SM CLR 37/12 A3007 RMK AO2 SLP103 T03720117 56017
KOLS 081954Z AUTO 00000KT 10SM CLR 36/11 A3009 RMK AO2 SLP109 T03560111
KOLS 081854Z AUTO 31004KT 10SM CLR 35/12 A3011 RMK AO2 SLP115 T03500122

METAR Board
Radar Display
Forecast Discussion
For situational awareness. Not to be used for flight planning purposes.